Time;durP1;ratioP1;P1;durP2;ratioP2;P2;SDS_P1;SDS_P2;PMS_P1;PMS_P2;Temp;Humidity;BMP_temperature;BMP_pressure;BME280_temperature;BME280_humidity;BME280_pressure;Samples;Min_cycle;Max_cycle;Signal;HPM_P1;HPM_P2
2022/01/21 00:01:53;;;;;;;13.27;2.90;;;;;;;;;;5139625;27;20041;-83
2022/01/21 00:04:38;;;;;;;17.67;3.00;;;;;;;;;;5125030;27;20034;-84
2022/01/21 00:07:23;;;;;;;11.83;3.03;;;1.30;99.90;;;;;;5140288;27;20137;-83
2022/01/21 00:10:11;;;;;;;17.93;2.80;;;1.70;99.90;;;;;;5155716;27;20034;-83
2022/01/21 00:13:15;;;;;;;15.90;3.40;;;1.50;99.90;;;;;;5140055;27;20042;-83
2022/01/21 00:16:05;;;;;;;13.33;2.80;;;0.60;99.90;;;;;;5139420;27;20041;-83
2022/01/21 00:19:04;;;;;;;13.27;2.93;;;1.70;99.90;;;;;;5139248;27;20041;-83
2022/01/21 00:31:00;;;;;;;19.30;2.57;;;2.10;99.90;;;;;;5141213;27;20017;-83
2022/01/21 00:33:46;;;;;;;24.57;3.33;;;3.30;99.90;;;;;;5124596;27;20034;-83
2022/01/21 00:36:32;;;;;;;18.27;3.23;;;2.90;99.90;;;;;;5139416;27;20114;-84
2022/01/21 00:39:22;;;;;;;15.83;3.30;;;2.90;99.90;;;;;;5125934;27;20095;-83
2022/01/21 00:43:14;;;;;;;15.17;2.27;;;2.20;99.90;;;;;;5155014;27;20087;-83
2022/01/21 00:45:24;;;;;;;12.57;2.45;;;2.30;99.90;;;;;;5136287;27;20060;-83
2022/01/21 00:48:16;;;;;;;13.40;2.63;;;4.90;99.90;;;;;;5124973;27;20094;-83
2022/01/21 00:51:02;;;;;;;14.67;2.23;;;4.80;99.90;;;;;;5154282;27;20098;-83
2022/01/21 00:53:51;;;;;;;18.17;2.43;;;2.80;99.90;;;;;;5124386;27;20044;-83
2022/01/21 00:56:38;;;;;;;19.63;2.37;;;2.30;99.90;;;;;;5124667;27;20037;-83
2022/01/21 00:59:23;;;;;;;10.83;2.00;;;;;;;;;;5154058;27;20041;-83
2022/01/21 01:02:08;;;;;;;21.37;2.90;;;;;;;;;;5138394;27;20490;-83
2022/01/21 01:04:53;;;;;;;17.73;2.37;;;2.30;99.90;;;;;;5138473;27;20539;-83
2022/01/21 01:07:45;;;;;;;11.37;1.93;;;2.30;99.90;;;;;;5124413;27;20041;-83
2022/01/21 01:10:48;;;;;;;13.57;2.60;;;2.30;99.90;;;;;;5140261;27;20179;-83
2022/01/21 01:20:04;;;;;;;7.53;1.90;;;2.10;99.90;;;;;;5153726;27;20604;-83
2022/01/21 01:22:59;;;;;;;12.83;2.30;;;2.20;99.90;;;;;;5153725;27;20086;-83
2022/01/21 01:28:54;;;;;;;9.07;2.77;;;2.30;99.90;;;;;;5141690;27;20114;-83
2022/01/21 01:32:06;;;;;;;8.93;1.90;;;2.30;99.90;;;;;;5153255;27;20194;-84
2022/01/21 01:34:52;;;;;;;9.80;2.60;;;2.10;99.90;;;;;;5123520;27;20063;-84
2022/01/21 01:40:36;;;;;;;11.17;2.20;;;2.30;99.90;;;;;;5105097;27;20096;-83
2022/01/21 01:49:52;;;;;;;7.07;1.80;;;2.30;99.90;;;;;;5132889;27;20562;-84
2022/01/21 01:52:43;;;;;;;6.40;1.83;;;;;;;;;;5105648;28;20544;-83
2022/01/21 01:55:29;;;;;;;15.27;1.80;;;2.40;99.90;;;;;;5117656;27;20092;-83
2022/01/21 01:58:14;;;;;;;16.73;2.83;;;;;;;;;;5132541;27;20030;-83
2022/01/21 02:01:06;;;;;;;15.50;1.83;;;2.40;99.90;;;;;;5116954;27;20090;-83
2022/01/21 02:03:51;;;;;;;12.70;1.73;;;;;;;;;;5090471;28;20046;-84
2022/01/21 02:06:37;;;;;;;14.07;2.90;;;;;;;;;;5117380;28;20038;-83
2022/01/21 02:09:28;;;;;;;11.07;2.10;;;2.40;99.90;;;;;;5117599;28;20068;-83
2022/01/21 02:12:13;;;;;;;10.37;1.87;;;3.90;99.90;;;;;;5116807;28;20645;-83
2022/01/21 02:15:00;;;;;;;5.73;1.20;;;;;;;;;;5117012;28;20548;-83
2022/01/21 02:23:56;;;;;;;3.60;0.97;;;;;;;;;;5132366;28;20430;-84
2022/01/21 02:26:46;;;;;;;6.50;1.20;;;2.40;99.90;;;;;;5132766;28;20295;-83
2022/01/21 02:29:42;;;;;;;4.60;1.10;;;2.40;99.90;;;;;;5132660;28;20495;-83
2022/01/21 02:32:28;;;;;;;6.83;1.23;;;4.60;99.90;;;;;;5104539;28;20609;-82
2022/01/21 02:35:23;;;;;;;3.70;1.13;;;2.40;99.90;;;;;;5117070;28;20053;-83
2022/01/21 02:38:08;;;;;;;3.97;1.30;;;;;;;;;;5132171;28;20403;-82
2022/01/21 02:40:53;;;;;;;7.53;1.27;;;;;;;;;;5132664;28;20046;-82
2022/01/21 02:43:38;;;;;;;5.83;1.03;;;;;;;;;;5132609;28;20038;-82
2022/01/21 02:46:36;;;;;;;5.87;1.50;;;2.50;99.90;;;;;;5116961;28;20058;-83
2022/01/21 02:49:32;;;;;;;4.60;0.90;;;4.70;99.90;;;;;;5118155;28;20111;-83
2022/01/21 02:52:19;;;;;;;9.13;1.73;;;;;;;;;;5131939;28;20050;-82
2022/01/21 02:55:04;;;;;;;9.53;1.33;;;3.30;99.90;;;;;;5119054;27;20083;-83
2022/01/21 02:57:49;;;;;;;6.97;1.53;;;3.20;99.90;;;;;;5120900;27;20038;-83
2022/01/21 03:00:34;;;;;;;10.67;1.77;;;;;;;;;;5120973;27;20095;-83
2022/01/21 03:03:18;;;;;;;8.23;1.30;;;;;;;;;;5120201;27;20841;-83
2022/01/21 03:06:06;;;;;;;7.30;1.30;;;2.10;99.90;;;;;;5120252;27;20119;-83
2022/01/21 03:08:54;;;;;;;10.07;1.73;;;2.10;99.90;;;;;;5120663;27;20422;-83
2022/01/21 03:11:40;;;;;;;8.53;1.43;;;5.30;99.90;;;;;;5135489;27;20449;-83
2022/01/21 03:14:25;;;;;;;10.60;1.97;;;;;;;;;;5120356;27;20087;-83
2022/01/21 03:17:10;;;;;;;4.97;1.40;;;;;;;;;;5119746;27;20038;-83
2022/01/21 03:19:55;;;;;;;10.77;1.67;;;2.20;99.90;;;;;;5135923;27;20038;-83
2022/01/21 03:22:40;;;;;;;7.30;1.33;;;;;;;;;;5105066;27;20054;-83
2022/01/21 03:25:24;;;;;;;14.67;2.10;;;;;;;;;;5119750;27;20038;-83
2022/01/21 03:28:09;;;;;;;7.90;1.33;;;;;;;;;;5119782;27;20506;-83
2022/01/21 03:30:56;;;;;;;14.50;1.30;;;;;;;;;;5135467;27;20096;-83
2022/01/21 03:33:43;;;;;;;7.10;1.33;;;2.20;99.90;;;;;;5135683;27;20456;-83
2022/01/21 03:36:28;;;;;;;4.43;1.23;;;;;;;;;;5105605;27;20042;-83
2022/01/21 03:39:13;;;;;;;8.10;1.27;;;;;;;;;;5119501;27;20399;-83
2022/01/21 03:41:58;;;;;;;5.83;1.20;;;;;;;;;;5105801;27;20088;-83
2022/01/21 03:44:44;;;;;;;5.40;1.50;;;2.00;99.90;;;;;;5105579;27;20088;-83
2022/01/21 03:47:29;;;;;;;5.17;1.10;;;;;;;;;;5105020;27;20407;-83
2022/01/21 03:53:24;;;;;;;10.03;1.40;;;1.90;99.90;;;;;;5135388;27;20100;-83
2022/01/21 03:56:10;;;;;;;5.37;1.67;;;;;;;;;;5134791;27;20117;-83
2022/01/21 03:58:55;;;;;;;5.23;1.27;;;;;;;;;;5119616;27;20494;-83
2022/01/21 04:01:41;;;;;;;7.67;1.20;;;1.90;99.90;;;;;;5135193;27;20035;-83
2022/01/21 04:04:25;;;;;;;4.90;1.30;;;-0.60;99.90;;;;;;5090349;27;20548;-83
2022/01/21 04:07:10;;;;;;;9.20;1.50;;;;;;;;;;5104017;27;20497;-84
2022/01/21 04:09:56;;;;;;;8.13;1.40;;;;;;;;;;5119480;27;20046;-83
2022/01/21 04:12:43;;;;;;;9.77;1.27;;;;;;;;;;5119395;27;20046;-83
2022/01/21 04:15:27;;;;;;;3.77;0.97;;;1.60;99.90;;;;;;5104648;27;20046;-83
2022/01/21 04:18:13;;;;;;;6.33;1.17;;;;;;;;;;5118726;27;20042;-83
2022/01/21 04:20:58;;;;;;;10.57;2.00;;;;;;;;;;5119163;27;20512;-83
2022/01/21 04:23:44;;;;;;;7.63;1.67;;;1.40;99.90;;;;;;5104873;27;20120;-83
2022/01/21 04:26:39;;;;;;;12.80;1.60;;;3.20;99.90;;;;;;5134162;27;20399;-83
2022/01/21 04:29:25;;;;;;;5.27;1.30;;;2.20;99.90;;;;;;5118424;27;20180;-83
2022/01/21 04:32:18;;;;;;;12.50;1.77;;;1.50;99.90;;;;;;5112704;28;20062;-84
2022/01/21 04:35:06;;;;;;;8.20;1.77;;;1.30;99.90;;;;;;5100117;28;20078;-83
2022/01/21 04:38:01;;;;;;;13.07;1.10;;;;;;;;;;5098526;28;20061;-83
2022/01/21 04:40:53;;;;;;;9.07;1.37;;;1.30;99.90;;;;;;5112612;28;20050;-83
2022/01/21 04:50:00;;;;;;;6.53;1.60;;;;;;;;;;5085899;28;20408;-83
2022/01/21 04:52:45;;;;;;;9.33;1.53;;;1.10;99.90;;;;;;5113591;28;20034;-83
2022/01/21 04:55:31;;;;;;;12.53;1.77;;;0.50;99.90;;;;;;5098000;28;20124;-83
2022/01/21 04:58:19;;;;;;;16.23;2.00;;;1.10;99.90;;;;;;5097647;28;20088;-85
2022/01/21 05:01:17;;;;;;;23.43;3.00;;;1.10;99.90;;;;;;5112570;28;20046;-83
2022/01/21 05:04:02;;;;;;;17.13;3.00;;;0.40;99.90;;;;;;5112376;28;20058;-83
2022/01/21 05:06:50;;;;;;;14.80;2.40;;;1.20;99.90;;;;;;5113395;28;20111;-83
2022/01/21 05:09:35;;;;;;;16.63;2.33;;;;;;;;;;5111702;28;20043;-83
2022/01/21 05:12:23;;;;;;;16.50;2.10;;;;;;;;;;5112791;28;20164;-83
2022/01/21 05:15:17;;;;;;;8.53;2.53;;;1.30;99.90;;;;;;5098304;28;20043;-83
2022/01/21 05:18:17;;;;;;;12.23;1.98;;;1.40;99.90;;;;;;5099076;28;20041;-83
2022/01/21 05:21:04;;;;;;;10.27;1.77;;;;;;;;;;5112319;28;20528;-83
2022/01/21 05:23:48;;;;;;;10.93;2.00;;;;;;;;;;5112128;28;20031;-83
2022/01/21 05:26:40;;;;;;;19.70;2.87;;;1.40;99.90;;;;;;5111327;28;20494;-83
2022/01/21 05:29:32;;;;;;;8.43;1.70;;;1.40;99.90;;;;;;5112335;28;20043;-83
2022/01/21 05:32:18;;;;;;;11.60;2.23;;;;;;;;;;5111797;28;20411;-83
2022/01/21 05:35:03;;;;;;;10.30;1.80;;;1.40;99.90;;;;;;5113082;28;20049;-83
2022/01/21 05:37:50;;;;;;;7.67;1.53;;;1.50;99.90;;;;;;5111859;28;20119;-83
2022/01/21 05:40:37;;;;;;;10.50;1.70;;;4.00;99.90;;;;;;5111256;28;20104;-83
2022/01/21 05:43:23;;;;;;;11.23;1.80;;;2.20;99.90;;;;;;5097161;28;20042;-85
2022/01/21 05:49:33;;;;;;;11.23;1.87;;;1.70;99.90;;;;;;5089609;28;20054;-83
2022/01/21 05:52:20;;;;;;;21.90;2.53;;;1.80;99.90;;;;;;5112821;28;20465;-83
2022/01/21 05:55:04;;;;;;;11.33;2.10;;;4.20;99.90;;;;;;5097755;28;20050;-83
2022/01/21 05:57:49;;;;;;;9.43;1.70;;;1.80;99.90;;;;;;5112837;28;20035;-83
2022/01/21 06:00:37;;;;;;;16.83;2.17;;;1.80;99.90;;;;;;5111985;28;20039;-83
2022/01/21 06:03:23;;;;;;;14.50;4.03;;;1.80;99.90;;;;;;5100691;27;20529;-84
2022/01/21 06:06:09;;;;;;;16.47;2.10;;;1.80;99.90;;;;;;5131002;28;20042;-83
2022/01/21 06:08:57;;;;;;;13.67;2.20;;;1.90;99.90;;;;;;5130938;28;20106;-83
2022/01/21 06:11:41;;;;;;;15.30;2.00;;;;;;;;;;5117533;28;20403;-83
2022/01/21 06:14:26;;;;;;;11.50;1.73;;;;;;;;;;5131872;28;20450;-84
2022/01/21 06:17:15;;;;;;;12.80;2.03;;;1.80;99.90;;;;;;5133341;28;20073;-83
2022/01/21 06:19:59;;;;;;;9.30;1.50;;;1.90;99.90;;;;;;5132658;28;20096;-83
2022/01/21 06:22:43;;;;;;;;;;;1.90;99.90;;;;;;5131815;28;20039;-83
2022/01/21 06:25:27;;;;;;;12.98;2.20;;;;;;;;;;5131644;28;20007;-83
2022/01/21 06:28:13;;;;;;;11.63;1.70;;;2.00;99.90;;;;;;5131905;27;20501;-83
2022/01/21 06:30:57;;;;;;;6.03;1.47;;;;;;;;;;5122851;27;20086;-84
2022/01/21 06:33:44;;;;;;;10.70;3.47;;;2.10;99.90;;;;;;5141317;27;20050;-83
2022/01/21 06:36:30;;;;;;;9.57;1.63;;;2.10;99.90;;;;;;5136659;27;20033;-84
2022/01/21 06:39:15;;;;;;;13.00;2.37;;;;;;;;;;5121253;27;20062;-83
2022/01/21 06:42:05;;;;;;;10.47;2.40;;;;;;;;;;5120994;27;20115;-83
2022/01/21 06:45:08;;;;;;;15.20;3.63;;;2.00;99.90;;;;;;5136298;27;20035;-83
2022/01/21 06:47:59;;;;;;;15.43;2.53;;;;;;;;;;5136673;27;20038;-83
2022/01/21 06:50:45;;;;;;;21.10;4.43;;;;;;;;;;5120433;27;20103;-84
2022/01/21 06:53:39;;;;;;;11.10;1.87;;;2.00;99.90;;;;;;5135427;27;20134;-84
2022/01/21 06:56:26;;;;;;;10.30;1.67;;;;;;;;;;5121537;27;20494;-84
2022/01/21 06:59:13;;;;;;;13.63;1.93;;;1.90;99.90;;;;;;5136119;27;20037;-83
2022/01/21 07:01:57;;;;;;;6.17;1.57;;;3.30;99.90;;;;;;5106484;27;20038;-84
2022/01/21 07:04:41;;;;;;;;;;;2.20;99.90;;;;;;5136334;27;20164;-84
2022/01/21 07:07:30;;;;;;;14.73;1.95;;;1.80;99.90;;;;;;5120552;27;20381;-83
2022/01/21 07:10:15;;;;;;;11.00;3.13;;;1.60;99.90;;;;;;5135877;27;20037;-84
2022/01/21 07:13:00;;;;;;;5.80;1.70;;;;;;;;;;5119972;27;20046;-83
2022/01/21 07:15:45;;;;;;;14.47;3.10;;;;;;;;;;5119993;27;20034;-83
2022/01/21 07:18:30;;;;;;;15.23;2.97;;;;;;;;;;5106068;27;20421;-83
2022/01/21 07:21:15;;;;;;;9.87;2.17;;;1.60;99.90;;;;;;5106336;27;20058;-83
2022/01/21 07:24:00;;;;;;;21.77;2.93;;;;;;;;;;5120227;27;20039;-83
2022/01/21 07:26:44;;;;;;;9.03;2.30;;;;;;;;;;5135295;27;20038;-84
2022/01/21 07:29:29;;;;;;;13.93;2.37;;;;;;;;;;5105901;27;20046;-84
2022/01/21 07:32:13;;;;;;;13.90;4.50;;;1.50;99.90;;;;;;5135332;27;20132;-83
2022/01/21 07:34:58;;;;;;;17.20;2.50;;;;;;;;;;5105339;27;20466;-84
2022/01/21 07:37:43;;;;;;;16.80;2.27;;;;;;;;;;5119628;27;20453;-84
2022/01/21 07:40:27;;;;;;;10.03;2.13;;;;;;;;;;5108369;27;20402;-82
2022/01/21 07:43:16;;;;;;;11.53;1.83;;;1.50;99.90;;;;;;5122028;27;20432;-83
2022/01/21 07:46:00;;;;;;;17.43;2.13;;;1.50;99.90;;;;;;5124311;27;20045;-83
2022/01/21 07:48:44;;;;;;;;;;;1.50;99.90;;;;;;5155808;27;20038;-83
2022/01/21 07:51:29;;;;;;;15.75;2.58;;;1.40;99.90;;;;;;5142960;27;19960;-82
2022/01/21 07:54:13;;;;;;;8.23;2.03;;;1.50;99.90;;;;;;5135665;27;20402;-89
2022/01/21 07:56:58;;;;;;;10.50;2.07;;;2.30;99.90;;;;;;5118793;27;20405;-84
2022/01/21 07:59:41;;;;;;;14.65;2.67;;;1.50;99.90;;;;;;5134875;27;20085;-82
2022/01/21 08:02:27;;;;;;;9.43;2.30;;;1.60;99.90;;;;;;5113647;27;20046;-85
2022/01/21 08:05:12;;;;;;;7.47;1.97;;;1.60;99.90;;;;;;5111115;27;20399;-83
2022/01/21 08:07:57;;;;;;;9.87;1.93;;;;;;;;;;5138544;27;20034;-84
2022/01/21 08:10:41;;;;;;;12.00;1.77;;;;;;;;;;5139762;27;20042;-80
2022/01/21 08:13:27;;;;;;;8.70;1.70;;;1.60;99.90;;;;;;5139079;27;20038;-87
2022/01/21 08:16:11;;;;;;;21.67;2.50;;;1.80;99.90;;;;;;5125161;27;20099;-84
2022/01/21 08:18:56;;;;;;;12.67;1.70;;;2.70;99.90;;;;;;5124961;27;20033;-84
2022/01/21 08:21:41;;;;;;;12.80;2.93;;;1.80;99.90;;;;;;5139975;27;20053;-85
2022/01/21 08:24:26;;;;;;;10.33;2.83;;;3.30;99.90;;;;;;5125642;27;20041;-84
2022/01/21 08:27:10;;;;;;;14.63;2.00;;;1.80;99.90;;;;;;5139962;27;20045;-84
2022/01/21 08:29:54;;;;;;;10.73;1.83;;;1.80;99.90;;;;;;5139067;27;20092;-84
2022/01/21 08:32:39;;;;;;;13.63;2.20;;;1.90;99.90;;;;;;5124846;27;20506;-84
2022/01/21 08:35:23;;;;;;;11.67;2.33;;;1.80;99.90;;;;;;5139954;27;20038;-84
2022/01/21 08:38:08;;;;;;;18.60;3.87;;;3.90;99.90;;;;;;5124701;27;20037;-84
2022/01/21 08:40:52;;;;;;;10.97;3.13;;;1.90;99.90;;;;;;5110177;27;20064;-85
2022/01/21 08:43:37;;;;;;;15.07;3.93;;;1.90;99.90;;;;;;5111100;27;20059;-84
2022/01/21 08:46:22;;;;;;;14.73;2.70;;;2.00;99.90;;;;;;5139763;27;20069;-84
2022/01/21 08:49:08;;;;;;;13.70;2.50;;;2.00;99.90;;;;;;5138712;27;20158;-85
2022/01/21 08:51:55;;;;;;;16.17;2.87;;;2.10;99.90;;;;;;5124265;27;20092;-84
2022/01/21 08:54:40;;;;;;;13.97;2.57;;;;;;;;;;5111303;27;20095;-84
2022/01/21 08:57:25;;;;;;;11.97;2.53;;;;;;;;;;5139273;27;20065;-84
2022/01/21 09:00:16;;;;;;;10.33;3.03;;;2.40;99.90;;;;;;5138697;27;20037;-85
2022/01/21 09:03:00;;;;;;;14.00;2.03;;;2.50;99.90;;;;;;5138579;27;20056;-84
2022/01/21 09:05:48;;;;;;;15.17;2.57;;;3.40;99.90;;;;;;5124494;27;20122;-84
2022/01/21 09:08:33;;;;;;;10.27;2.27;;;3.30;99.90;;;;;;5139273;27;20038;-84
2022/01/21 09:11:17;;;;;;;13.67;2.67;;;2.70;99.90;;;;;;5139363;27;20102;-84
2022/01/21 09:14:03;;;;;;;12.93;2.93;;;2.80;99.90;;;;;;5124196;27;20041;-84
2022/01/21 09:16:47;;;;;;;13.67;2.77;;;2.80;99.90;;;;;;5124504;27;20402;-84
2022/01/21 09:19:32;;;;;;;12.97;2.00;;;2.80;99.90;;;;;;5124337;27;20046;-84
2022/01/21 09:22:17;;;;;;;14.13;2.40;;;2.90;99.90;;;;;;5139122;27;20052;-84
2022/01/21 09:25:02;;;;;;;10.97;1.90;;;;;;;;;;5153813;27;20042;-84
2022/01/21 09:27:46;;;;;;;9.57;2.03;;;;;;;;;;5138958;27;20042;-84
2022/01/21 09:30:32;;;;;;;17.60;2.60;;;2.90;99.90;;;;;;5154250;27;20042;-84
2022/01/21 09:33:16;;;;;;;12.30;3.40;;;4.50;99.90;;;;;;5138183;27;20204;-84
2022/01/21 09:36:02;;;;;;;17.63;3.73;;;3.20;99.90;;;;;;5138037;27;20482;-85
2022/01/21 09:38:47;;;;;;;17.23;2.97;;;3.00;99.90;;;;;;5124310;27;20142;-84
2022/01/21 09:41:31;;;;;;;18.20;3.07;;;3.00;99.90;;;;;;5154478;27;20039;-84
2022/01/21 09:44:21;;;;;;;14.93;2.50;;;3.50;99.90;;;;;;5109228;27;20038;-84
2022/01/21 09:47:05;;;;;;;12.97;2.87;;;;;;;;;;5137811;27;20073;-84
2022/01/21 09:49:50;;;;;;;18.93;3.57;;;3.20;99.90;;;;;;5138372;27;20501;-84
2022/01/21 09:52:36;;;;;;;18.43;3.13;;;3.30;99.90;;;;;;5138411;27;20041;-84
2022/01/21 09:55:22;;;;;;;19.53;3.37;;;3.30;99.90;;;;;;5123835;27;20041;-84
2022/01/21 09:58:08;;;;;;;17.00;3.07;;;4.00;99.90;;;;;;5137766;27;20598;-84
2022/01/21 10:00:55;;;;;;;20.80;3.23;;;4.50;99.90;;;;;;5138244;27;20045;-84
2022/01/21 10:03:43;;;;;;;21.37;2.60;;;3.70;99.90;;;;;;5137627;27;20082;-84
2022/01/21 10:06:29;;;;;;;16.70;2.60;;;4.40;99.90;;;;;;5138475;27;20387;-84
2022/01/21 10:09:19;;;;;;;11.77;3.20;;;5.20;99.90;;;;;;5153304;27;20079;-84
2022/01/21 10:12:04;;;;;;;16.35;2.90;;;4.20;99.90;;;;;;5137723;27;20033;-84
2022/01/21 10:14:48;;;;;;;15.98;3.55;;;4.10;99.90;;;;;;5138312;27;20041;-84
2022/01/21 10:17:32;;;;;;;12.85;2.22;;;4.60;99.90;;;;;;5138622;27;20101;-84
2022/01/21 10:23:22;;;;;;;15.00;2.53;;;4.10;99.90;;;;;;5153328;27;20864;-84
2022/01/21 10:26:11;;;;;;;12.38;2.47;;;4.20;99.90;;;;;;5153208;27;20041;-84
2022/01/21 10:28:56;;;;;;;11.40;2.88;;;4.20;99.90;;;;;;5137977;27;20030;-84
2022/01/21 10:32:00;;;;;;;14.73;2.20;;;5.00;99.90;;;;;;5152596;27;20164;-85
2022/01/21 10:34:45;;;;;;;11.75;2.90;;;4.20;99.90;;;;;;5117689;28;20078;-86
2022/01/21 10:37:35;;;;;;;10.35;2.50;;;4.20;99.90;;;;;;5119260;27;20112;-85
2022/01/21 10:40:21;;;;;;;13.15;2.95;;;4.30;99.90;;;;;;5151864;27;20041;-85
2022/01/21 10:43:14;;;;;;;14.10;3.03;;;4.30;99.90;;;;;;5136065;27;20432;-85
2022/01/21 10:45:59;;;;;;;8.07;2.08;;;4.50;99.90;;;;;;5122610;27;20057;-84
2022/01/21 10:49:01;;;;;;;12.50;2.75;;;4.60;99.90;;;;;;5137745;27;20034;-85
2022/01/21 10:51:50;;;;;;;12.70;2.67;;;4.70;99.90;;;;;;5135259;27;20042;-84
2022/01/21 10:54:49;;;;;;;16.83;2.88;;;4.80;99.90;;;;;;5143107;27;20458;-85
2022/01/21 10:57:36;;;;;;;14.80;2.97;;;4.90;99.90;;;;;;5137193;27;20034;-84
2022/01/21 11:00:20;;;;;;;19.42;2.95;;;6.00;99.90;;;;;;5119291;27;20106;-84
2022/01/21 11:03:09;;;;;;;;;;;4.90;99.90;;;;;;5137400;27;20038;-84
2022/01/21 11:06:22;;;;;;;20.85;3.00;;;5.00;99.90;;;;;;5135659;27;19961;-85
2022/01/21 11:09:18;;;;;;;18.90;3.00;;;4.50;99.90;;;;;;5132409;27;20034;-83
2022/01/21 11:12:14;;;;;;;12.57;2.75;;;5.10;99.90;;;;;;5150461;27;20111;-86
2022/01/21 11:15:04;;;;;;;11.82;3.33;;;5.20;99.90;;;;;;5133038;27;20114;-83
2022/01/21 11:17:58;;;;;;;20.08;3.30;;;5.30;99.90;;;;;;5132776;27;20082;-83
2022/01/21 11:20:46;;;;;;;22.35;3.38;;;5.90;99.90;;;;;;5156977;27;20746;-83
2022/01/21 11:23:32;;;;;;;16.95;3.45;;;5.40;99.90;;;;;;5140507;27;20095;-83
2022/01/21 11:26:19;;;;;;;18.58;4.18;;;5.70;99.90;;;;;;5153569;27;20037;-85
2022/01/21 11:29:04;;;;;;;20.98;3.88;;;5.50;99.90;;;;;;5125930;27;20122;-83
2022/01/21 11:31:50;;;;;;;30.15;3.20;;;5.50;99.90;;;;;;5141211;27;20037;-84
2022/01/21 11:34:35;;;;;;;19.23;3.78;;;5.60;99.90;;;;;;5140966;27;20061;-84
2022/01/21 11:37:19;;;;;;;26.08;3.50;;;5.70;99.90;;;;;;5156186;27;20159;-84
2022/01/21 11:40:04;;;;;;;26.65;3.58;;;5.70;99.90;;;;;;5140965;27;20099;-83
2022/01/21 11:42:50;;;;;;;16.63;2.88;;;5.90;99.90;;;;;;5126284;27;20041;-83
2022/01/21 11:48:50;;;;;;;12.63;2.70;;;6.00;99.90;;;;;;5155399;27;20041;-84
2022/01/21 11:51:38;;;;;;;13.52;2.50;;;6.10;99.90;;;;;;5139970;27;20422;-85
2022/01/21 11:54:25;;;;;;;12.75;2.70;;;6.20;99.90;;;;;;5144093;27;20498;-85
2022/01/21 11:57:11;;;;;;;13.57;2.25;;;6.60;99.90;;;;;;5137181;27;20033;-85
2022/01/21 12:00:06;;;;;;;15.75;2.08;;;7.60;99.90;;;;;;5139968;27;20069;-85
2022/01/21 12:02:50;;;;;;;17.48;4.25;;;6.40;99.90;;;;;;5139887;27;20038;-85
2022/01/21 12:05:37;;;;;;;17.25;2.92;;;6.70;99.90;;;;;;5151892;27;20030;-93
2022/01/21 12:08:46;;;;;;;12.20;2.65;;;6.40;99.90;;;;;;5134752;27;20190;-85
2022/01/21 12:11:35;;;;;;;16.67;3.33;;;6.40;99.90;;;;;;5122839;27;20068;-85
2022/01/21 12:14:36;;;;;;;10.13;2.13;;;6.40;99.90;;;;;;5119531;27;20026;-85
2022/01/21 12:17:43;;;;;;;13.43;3.00;;;6.40;99.90;;;;;;5136540;27;20037;-89
2022/01/21 12:20:36;;;;;;;16.20;1.95;;;7.40;99.90;;;;;;5125276;27;20069;-84
2022/01/21 12:23:23;;;;;;;8.75;2.05;;;6.50;99.90;;;;;;5139077;27;20054;-85
2022/01/21 12:26:26;;;;;;;14.02;2.28;;;6.40;99.90;;;;;;5139739;27;20037;-85
2022/01/21 12:29:13;;;;;;;7.28;2.03;;;6.40;99.90;;;;;;5139451;27;20083;-84
2022/01/21 12:32:16;;;;;;;8.98;1.88;;;6.40;99.90;;;;;;5139494;27;20038;-80
2022/01/21 12:35:05;;;;;;;12.23;2.10;;;6.40;99.90;;;;;;5139829;27;20065;-80
2022/01/21 12:39:05;;;;;;;8.07;1.85;;;6.50;99.90;;;;;;5139796;27;20038;-79
2022/01/21 12:41:17;;;;;;;9.43;1.70;;;7.10;99.90;;;;;;5155228;27;20041;-79
2022/01/21 12:44:05;;;;;;;11.30;2.83;;;6.50;99.90;;;;;;5155350;27;20075;-79
2022/01/21 12:46:52;;;;;;;11.07;1.88;;;6.60;99.90;;;;;;5139671;27;20037;-80
2022/01/21 12:49:47;;;;;;;10.07;1.48;;;6.60;99.90;;;;;;5154086;27;20042;-80
2022/01/21 12:52:44;;;;;;;14.35;2.20;;;6.70;99.90;;;;;;5138497;27;20033;-79
2022/01/21 12:58:43;;;;;;;15.95;2.92;;;6.70;99.90;;;;;;5141272;27;20123;-79
2022/01/21 13:01:36;;;;;;;14.02;2.17;;;6.70;99.90;;;;;;5104354;27;20042;-79
2022/01/21 13:04:46;;;;;;;14.82;2.20;;;6.70;99.90;;;;;;5118212;27;20030;-79
2022/01/21 13:07:47;;;;;;;9.57;2.30;;;6.70;99.90;;;;;;5122129;27;20025;-79
2022/01/21 13:10:31;;;;;;;18.13;2.38;;;6.70;99.90;;;;;;5138440;27;20046;-79
2022/01/21 13:13:33;;;;;;;16.85;2.47;;;6.70;99.90;;;;;;5138438;27;20037;-79
2022/01/21 13:16:26;;;;;;;17.50;3.08;;;6.70;99.90;;;;;;5146987;27;20033;-80
2022/01/21 13:19:10;;;;;;;12.25;2.80;;;6.70;99.90;;;;;;5130531;27;20091;-80
2022/01/21 13:21:55;;;;;;;10.32;1.92;;;6.70;99.90;;;;;;5138372;27;20390;-85
2022/01/21 13:25:02;;;;;;;8.77;2.03;;;6.70;99.90;;;;;;5147104;27;20092;-81
2022/01/21 13:27:52;;;;;;;10.93;2.60;;;7.30;99.90;;;;;;5132870;27;20154;-80
2022/01/21 13:30:37;;;;;;;18.55;2.40;;;6.70;99.90;;;;;;5132933;27;20077;-79
2022/01/21 13:33:21;;;;;;;13.75;2.95;;;6.70;99.90;;;;;;5148451;27;20512;-79
2022/01/21 13:36:05;;;;;;;;;;;7.20;99.90;;;;;;5137170;27;20399;-79
2022/01/21 13:39:24;;;;;;;17.42;3.15;;;6.70;99.90;;;;;;5130609;27;19967;-79
2022/01/21 13:42:19;;;;;;;15.65;2.30;;;6.70;99.90;;;;;;5136173;27;20041;-80
2022/01/21 13:45:11;;;;;;;19.38;2.42;;;6.70;99.90;;;;;;5153929;27;20057;-80
2022/01/21 13:47:55;;;;;;;16.73;2.67;;;6.70;99.90;;;;;;5124057;27;20082;-79
2022/01/21 13:50:44;;;;;;;10.02;2.03;;;6.70;99.90;;;;;;5117013;27;20115;-79
2022/01/21 13:53:29;;;;;;;11.13;2.85;;;8.20;99.90;;;;;;5109860;27;20399;-79
2022/01/21 13:56:15;;;;;;;23.80;2.53;;;6.70;99.90;;;;;;5152874;27;20499;-80
2022/01/21 13:59:00;;;;;;;19.05;2.85;;;7.20;99.90;;;;;;5153700;27;20550;-79
2022/01/21 14:01:43;;;;;;;;;;;6.80;99.90;;;;;;5153629;27;20063;-80
2022/01/21 14:04:28;;;;;;;17.13;2.35;;;6.70;99.90;;;;;;5123240;27;19918;-79
2022/01/21 14:07:33;;;;;;;20.75;3.00;;;6.70;99.90;;;;;;5138203;27;20395;-78
2022/01/21 14:10:17;;;;;;;;;;;6.80;99.90;;;;;;5138511;27;20107;-78
2022/01/21 14:13:02;;;;;;;13.68;2.75;;;6.80;99.90;;;;;;5123733;27;19963;-79
2022/01/21 14:15:46;;;;;;;23.50;4.93;;;6.80;99.90;;;;;;5123008;27;20034;-79
2022/01/21 14:18:33;;;;;;;20.50;3.20;;;6.90;99.90;;;;;;5137898;27;20041;-79
2022/01/21 14:21:22;;;;;;;23.63;3.90;;;6.90;99.90;;;;;;5137723;27;20053;-79
2022/01/21 14:24:08;;;;;;;14.40;2.67;;;7.00;99.90;;;;;;5153902;27;20037;-78
2022/01/21 14:27:00;;;;;;;17.73;2.75;;;6.90;99.90;;;;;;5153109;27;20057;-81
2022/01/21 14:29:55;;;;;;;20.52;3.67;;;6.90;99.90;;;;;;5153036;27;20099;-79
2022/01/21 14:32:41;;;;;;;18.45;2.90;;;8.00;99.90;;;;;;5137460;27;20446;-79
2022/01/21 14:35:30;;;;;;;17.15;3.22;;;6.90;99.90;;;;;;5111602;28;20047;-79
2022/01/21 14:38:19;;;;;;;19.45;2.67;;;6.90;99.90;;;;;;5111239;28;20035;-79
2022/01/21 14:41:18;;;;;;;14.30;2.53;;;6.80;99.90;;;;;;5111301;28;20046;-79
2022/01/21 14:44:03;;;;;;;14.35;2.50;;;6.90;99.90;;;;;;5111258;28;20104;-79
2022/01/21 14:46:47;;;;;;;16.70;3.92;;;6.80;99.90;;;;;;5110759;28;20116;-79
2022/01/21 14:49:31;;;;;;;;;;;7.20;99.90;;;;;;5111446;28;20497;-80
2022/01/21 14:52:33;;;;;;;;;;;6.80;99.90;;;;;;5116585;28;20048;-79
2022/01/21 14:55:33;;;;;;;11.13;2.55;;;6.80;99.90;;;;;;5115236;28;20413;-79
2022/01/21 14:58:27;;;;;;;16.00;2.80;;;8.30;99.90;;;;;;5115006;28;20092;-79
2022/01/21 15:01:11;;;;;;;16.92;2.35;;;6.80;99.90;;;;;;5115927;28;20046;-79
2022/01/21 15:03:56;;;;;;;15.32;2.95;;;8.70;99.90;;;;;;5115340;28;20105;-80
2022/01/21 15:06:40;;;;;;;20.10;2.97;;;6.70;99.90;;;;;;5100050;28;20042;-79
2022/01/21 15:09:29;;;;;;;18.17;4.40;;;6.80;99.90;;;;;;5086142;28;20420;-79
2022/01/21 15:15:53;;;;;;;21.60;4.13;;;9.20;99.90;;;;;;5115610;28;20399;-79
2022/01/21 15:18:38;;;;;;;14.18;2.25;;;6.70;99.90;;;;;;5115447;28;20056;-79
2022/01/21 15:21:25;;;;;;;15.05;2.50;;;7.90;99.90;;;;;;5115717;28;20495;-78
2022/01/21 15:24:09;;;;;;;14.43;2.30;;;7.50;99.90;;;;;;5115462;28;20034;-79
2022/01/21 15:26:53;;;;;;;;;;;6.70;99.90;;;;;;5113986;28;20033;-79
2022/01/21 15:29:38;;;;;;;16.17;2.53;;;6.50;99.90;;;;;;5114054;28;20412;-78
2022/01/21 15:32:23;;;;;;;14.90;2.63;;;8.30;99.90;;;;;;5113957;28;20510;-78
2022/01/21 15:35:08;;;;;;;18.55;2.90;;;7.80;99.90;;;;;;5156234;27;20490;-78
2022/01/21 15:37:53;;;;;;;11.32;2.20;;;6.60;99.90;;;;;;5140317;27;20041;-79
2022/01/21 15:40:37;;;;;;;16.05;3.92;;;6.70;99.90;;;;;;5140453;27;20402;-79
2022/01/21 15:43:21;;;;;;;10.38;2.03;;;6.60;99.90;;;;;;5140243;27;20492;-79
2022/01/21 15:46:05;;;;;;;;;;;7.70;99.90;;;;;;5155878;27;20520;-79
2022/01/21 15:48:49;;;;;;;11.57;2.70;;;6.60;99.90;;;;;;5139647;27;19913;-79
2022/01/21 15:51:35;;;;;;;15.30;2.97;;;6.60;99.90;;;;;;5131053;27;20505;-78
2022/01/21 15:54:20;;;;;;;11.05;1.75;;;8.10;99.90;;;;;;5141280;27;20090;-78
2022/01/21 15:57:09;;;;;;;14.38;2.65;;;6.60;99.90;;;;;;5151789;27;20083;-78
2022/01/21 15:59:53;;;;;;;8.90;1.80;;;6.50;99.90;;;;;;5136930;27;20037;-78
2022/01/21 16:02:38;;;;;;;7.50;1.83;;;6.50;99.90;;;;;;5109951;27;20034;-78
2022/01/21 16:05:22;;;;;;;9.20;2.33;;;7.40;99.90;;;;;;5140304;27;20037;-78